Hantsport, Canada
Current Conditions -  °F | °C
As of 5:03 AM on Monday 20 Oct 2014 (Local Time) from CYHZ Reporting Station
Overcast Overcast  
Wind Chill: 30°   Ceiling: 700
Heat Index: 39°   Visibility: 15mi
Dew Point: 37°   Wind: 18mph
Humidity: 93%   Direction: 330°NNW
Pressure: 29.56"   Gusts: NA
Location:  45.07°N, 64.18°W
Report Text: CYHZ 200803Z 33016KT 15SM BKN007 OVC030 04/03 A2956 RMK SF7SC1 SLP014
Loading
Personal Weather Stations






























Interactive Weather Map
Tropical Storm Tracking
New forecast layout! Learn more

10-Day Weather Forecast

Advertisements
Track Severe Weather on mobile